Time;durP1;ratioP1;P1;durP2;ratioP2;P2;SDS_P1;SDS_P2;PMS_P1;PMS_P2;Temp;Humidity;BMP_temperature;BMP_pressure;BME280_temperature;BME280_humidity;BME280_pressure;Samples;Min_cycle;Max_cycle;Signal;HPM_P1;HPM_P2
2022/05/19 00:01:54;;;;;;;1064.65;987.85;;;20.90;99.90;;;;;;5047032;28;20206;-71
2022/05/19 00:04:20;;;;;;;1060.03;983.75;;;20.80;99.90;;;;;;5068644;28;20409;-72
2022/05/19 00:06:46;;;;;;;1050.10;974.90;;;20.70;99.90;;;;;;5036443;28;20182;-72
2022/05/19 00:09:11;;;;;;;1066.25;989.88;;;20.70;99.90;;;;;;5035435;28;20217;-71
2022/05/19 00:11:38;;;;;;;1060.55;984.30;;;20.70;99.90;;;;;;5034621;28;20260;-71
2022/05/19 00:14:04;;;;;;;1056.30;980.65;;;20.70;99.90;;;;;;5036453;28;20186;-72
2022/05/19 00:16:30;;;;;;;1043.90;968.95;;;20.80;99.90;;;;;;5068466;28;20211;-71
2022/05/19 00:18:56;;;;;;;1047.50;972.92;;;20.90;99.90;;;;;;5036200;28;20704;-71
2022/05/19 00:21:22;;;;;;;1034.15;960.33;;;21.00;99.90;;;;;;5035253;28;20187;-72
2022/05/19 00:23:48;;;;;;;1027.03;954.83;;;21.10;99.90;;;;;;5068319;28;20189;-72
2022/05/19 00:26:13;;;;;;;1017.10;945.72;;;21.20;99.90;;;;;;5034837;28;20191;-71
2022/05/19 00:28:39;;;;;;;1005.58;935.90;;;21.30;99.90;;;;;;5051527;28;20193;-71
2022/05/19 00:31:05;;;;;;;1004.38;934.65;;;21.30;99.90;;;;;;5038437;28;20244;-72
2022/05/19 00:33:31;;;;;;;1014.15;943.42;;;21.30;99.90;;;;;;5054535;28;20686;-71
2022/05/19 00:35:56;;;;;;;1015.13;944.75;;;21.30;99.90;;;;;;5046765;28;20186;-72
2022/05/19 00:38:22;;;;;;;999.33;930.47;;;21.30;99.90;;;;;;5036350;28;20230;-71
2022/05/19 00:40:54;;;;;;;994.42;926.28;;;21.30;99.90;;;;;;5018763;28;20195;-71
2022/05/19 00:43:32;;;;;;;991.45;923.17;;;21.30;99.90;;;;;;5036296;28;20217;-71
2022/05/19 00:46:24;;;;;;;999.28;930.97;;;21.30;99.90;;;;;;5042996;28;20235;-71
2022/05/19 00:48:54;;;;;;;989.13;921.55;;;21.30;99.90;;;;;;5037949;28;20260;-72
2022/05/19 00:51:35;;;;;;;988.47;920.72;;;21.30;99.90;;;;;;5036049;28;20190;-71
2022/05/19 00:54:07;;;;;;;996.58;927.75;;;21.20;99.90;;;;;;5034408;28;20190;-71
2022/05/19 00:56:40;;;;;;;993.78;925.22;;;21.20;99.90;;;;;;5068114;28;20566;-71
2022/05/19 00:59:11;;;;;;;998.83;930.30;;;21.20;99.90;;;;;;5035659;28;20203;-71
2022/05/19 01:01:40;;;;;;;997.55;928.50;;;21.20;99.90;;;;;;5034662;28;20277;-71
2022/05/19 01:04:18;;;;;;;1024.07;952.63;;;21.20;99.90;;;;;;5048670;28;20173;-72
2022/05/19 01:06:48;;;;;;;1008.78;938.97;;;21.30;99.90;;;;;;5049819;28;20178;-71
2022/05/19 01:09:16;;;;;;;1022.05;950.65;;;21.30;99.90;;;;;;5035426;28;20610;-71
2022/05/19 01:11:43;;;;;;;1038.25;965.00;;;21.30;99.90;;;;;;5027590;28;20181;-71
2022/05/19 01:14:10;;;;;;;1027.10;954.35;;;21.40;99.90;;;;;;5044893;28;20680;-71
2022/05/19 01:16:37;;;;;;;1041.95;967.58;;;21.40;99.90;;;;;;5035226;28;20213;-70
2022/05/19 01:19:14;;;;;;;1042.10;967.67;;;21.40;99.90;;;;;;5034905;28;20600;-70
2022/05/19 01:21:40;;;;;;;1034.97;961.58;;;21.30;99.90;;;;;;5051703;28;20193;-71
2022/05/19 01:24:39;;;;;;;1041.85;966.95;;;21.30;99.90;;;;;;5065128;28;20186;-70
2022/05/19 01:27:05;;;;;;;1034.13;960.40;;;21.30;99.90;;;;;;5045320;28;20186;-70
2022/05/19 01:29:31;;;;;;;1058.95;982.38;;;21.30;99.90;;;;;;5045334;28;20216;-71
2022/05/19 01:31:59;;;;;;;1055.53;979.42;;;21.20;99.90;;;;;;5038663;28;20178;-71
2022/05/19 01:34:29;;;;;;;1070.03;992.40;;;21.20;99.90;;;;;;5042801;28;20185;-70
2022/05/19 01:36:56;;;;;;;1051.82;976.42;;;21.30;99.90;;;;;;5034878;28;20186;-71
2022/05/19 01:39:25;;;;;;;1063.82;987.40;;;21.20;99.90;;;;;;5034740;28;20206;-70
2022/05/19 01:42:28;;;;;;;1053.93;978.72;;;21.20;99.90;;;;;;5034618;28;20244;-70
2022/05/19 01:45:20;;;;;;;1039.55;965.78;;;21.20;99.90;;;;;;5034828;28;20186;-70
2022/05/19 01:47:56;;;;;;;1038.10;964.95;;;21.20;99.90;;;;;;5053619;28;20182;-70
2022/05/19 01:50:29;;;;;;;1030.25;957.83;;;21.10;99.90;;;;;;5045404;28;20189;-71
2022/05/19 01:53:36;;;;;;;1031.03;958.25;;;21.10;99.90;;;;;;5045709;28;20262;-70
2022/05/19 01:56:39;;;;;;;1014.22;943.17;;;21.10;99.90;;;;;;5026074;28;20191;-70
2022/05/19 01:59:43;;;;;;;1014.45;943.17;;;21.10;99.90;;;;;;5034464;28;20206;-70
2022/05/19 02:02:32;;;;;;;1021.55;949.60;;;21.10;99.90;;;;;;5034673;28;20297;-70
2022/05/19 02:05:28;;;;;;;1027.03;953.97;;;21.10;99.90;;;;;;5030150;28;20690;-70
2022/05/19 02:07:57;;;;;;;1032.70;959.85;;;21.10;99.90;;;;;;5040646;28;20182;-70
2022/05/19 02:10:29;;;;;;;1058.60;982.17;;;21.40;99.90;;;;;;5050160;28;20190;-71
2022/05/19 02:13:00;;;;;;;1076.18;994.50;;;21.50;99.90;;;;;;5036521;28;20198;-70
2022/05/19 02:15:29;;;;;;;1091.65;999.90;;;21.50;99.90;;;;;;5049440;28;20188;-70
2022/05/19 02:17:56;;;;;;;1100.68;999.90;;;21.50;99.90;;;;;;5035403;28;20206;-70
2022/05/19 02:20:24;;;;;;;1095.65;999.90;;;21.70;99.90;;;;;;5051331;28;20190;-70
2022/05/19 02:22:50;;;;;;;1111.05;999.90;;;21.60;99.90;;;;;;5035121;28;20183;-70
2022/05/19 02:25:26;;;;;;;1113.18;999.90;;;21.70;99.90;;;;;;5028412;28;20187;-70
2022/05/19 02:27:57;;;;;;;1117.80;999.90;;;21.70;99.90;;;;;;5033984;28;20210;-71
2022/05/19 02:30:28;;;;;;;1116.30;999.90;;;21.60;99.90;;;;;;5049427;28;20190;-71
2022/05/19 02:32:54;;;;;;;1113.53;999.90;;;21.60;99.90;;;;;;5040878;28;20194;-71
2022/05/19 02:35:21;;;;;;;1123.40;999.90;;;21.60;99.90;;;;;;5016176;28;20191;-71
2022/05/19 02:37:46;;;;;;;1119.28;999.90;;;21.50;99.90;;;;;;5048002;28;20878;-71
2022/05/19 02:40:16;;;;;;;1125.30;999.90;;;21.40;99.90;;;;;;5032575;28;20262;-71
2022/05/19 02:42:42;;;;;;;1129.95;999.90;;;21.40;99.90;;;;;;5033651;28;20179;-71
2022/05/19 02:45:09;;;;;;;1120.07;999.90;;;21.50;99.90;;;;;;5033623;28;20282;-71
2022/05/19 02:47:35;;;;;;;1120.15;999.90;;;21.50;99.90;;;;;;5033907;28;20187;-71
2022/05/19 02:50:01;;;;;;;1129.93;999.90;;;21.60;99.90;;;;;;5033859;28;20606;-71
2022/05/19 02:52:26;;;;;;;1124.60;999.90;;;21.60;99.90;;;;;;5031822;28;20191;-71
2022/05/19 02:54:53;;;;;;;1141.55;999.90;;;21.60;99.90;;;;;;5033809;28;20218;-71
2022/05/19 02:57:19;;;;;;;1110.07;999.90;;;21.50;99.90;;;;;;5031990;28;20191;-72
2022/05/19 02:59:45;;;;;;;1143.03;999.90;;;21.40;99.90;;;;;;5032092;28;20652;-72
2022/05/19 03:02:10;;;;;;;1136.97;999.90;;;21.20;99.90;;;;;;5033968;28;20203;-74
2022/05/19 03:04:36;;;;;;;1122.28;999.90;;;20.90;99.90;;;;;;5042835;28;20185;-73
2022/05/19 03:07:02;;;;;;;1099.43;999.90;;;20.60;99.90;;;;;;5033019;28;20201;-74
2022/05/19 03:09:28;;;;;;;1116.50;999.90;;;20.30;99.90;;;;;;5031798;28;20578;-74
2022/05/19 03:11:54;;;;;;;1134.97;999.90;;;20.10;99.90;;;;;;5065191;28;20187;-73
2022/05/19 03:14:19;;;;;;;1133.70;999.90;;;20.00;99.90;;;;;;5031994;28;20191;-74
2022/05/19 03:16:45;;;;;;;1164.97;999.90;;;20.00;99.90;;;;;;5048766;28;20281;-74
2022/05/19 03:19:12;;;;;;;1183.47;999.90;;;20.10;99.90;;;;;;5034473;28;20720;-74
2022/05/19 03:21:38;;;;;;;1199.63;999.90;;;20.00;99.90;;;;;;5031906;28;20190;-72
2022/05/19 03:24:04;;;;;;;1217.07;999.90;;;20.00;99.90;;;;;;5035880;28;20214;-72
2022/05/19 03:26:30;;;;;;;1209.03;999.90;;;20.10;99.90;;;;;;5041351;28;20185;-72
2022/05/19 03:28:55;;;;;;;1209.15;999.90;;;20.00;99.90;;;;;;5053813;28;20320;-73
2022/05/19 03:31:21;;;;;;;1211.63;999.90;;;20.00;99.90;;;;;;5044143;28;20650;-73
2022/05/19 03:33:47;;;;;;;1224.88;999.90;;;20.00;99.90;;;;;;5040187;28;20539;-73
2022/05/19 03:36:13;;;;;;;1217.60;999.90;;;20.20;99.90;;;;;;5039982;28;20175;-73
2022/05/19 03:38:39;;;;;;;1242.00;999.90;;;20.30;99.90;;;;;;5039761;28;20202;-73
2022/05/19 03:41:05;;;;;;;1248.40;999.90;;;20.10;99.90;;;;;;5040009;28;20671;-72
2022/05/19 03:43:34;;;;;;;1259.47;999.90;;;20.00;99.90;;;;;;5039559;28;20190;-72
2022/05/19 03:46:03;;;;;;;1262.50;999.90;;;19.90;99.90;;;;;;5022209;28;20198;-72
2022/05/19 03:48:36;;;;;;;1266.68;999.90;;;19.70;99.90;;;;;;5038875;28;20190;-73
2022/05/19 03:51:04;;;;;;;1273.28;999.90;;;19.50;99.90;;;;;;5050484;28;20548;-72
2022/05/19 03:53:30;;;;;;;1274.28;999.90;;;19.30;99.90;;;;;;5058700;28;20182;-72
2022/05/19 03:55:56;;;;;;;1261.57;999.90;;;19.00;99.90;;;;;;5054456;28;20189;-72
2022/05/19 03:58:22;;;;;;;1266.32;999.90;;;18.80;99.90;;;;;;5071839;28;20297;-72
2022/05/19 04:00:48;;;;;;;1266.38;999.90;;;18.80;99.90;;;;;;5051748;28;20194;-73
2022/05/19 04:03:13;;;;;;;1277.80;999.90;;;18.80;99.90;;;;;;5047344;28;20198;-72
2022/05/19 04:05:39;;;;;;;1278.28;999.90;;;18.90;99.90;;;;;;5032112;28;20243;-72
2022/05/19 04:08:05;;;;;;;1285.35;999.90;;;18.80;99.90;;;;;;5053604;28;20290;-73
2022/05/19 04:10:32;;;;;;;1288.05;999.90;;;18.90;99.90;;;;;;5081063;28;20202;-73
2022/05/19 04:12:58;;;;;;;1288.43;999.90;;;19.00;99.90;;;;;;5046706;28;20228;-74
2022/05/19 04:15:24;;;;;;;1294.43;999.90;;;19.10;99.90;;;;;;5054793;28;20182;-73
2022/05/19 04:17:50;;;;;;;1288.65;999.90;;;19.20;99.90;;;;;;5037746;28;20577;-73
2022/05/19 04:20:16;;;;;;;1294.22;999.90;;;19.20;99.90;;;;;;5039809;28;20186;-73
2022/05/19 04:22:42;;;;;;;1272.90;999.90;;;19.10;99.90;;;;;;5038045;28;20233;-73
2022/05/19 04:25:10;;;;;;;1278.20;999.90;;;18.90;99.90;;;;;;5038285;28;20554;-73
2022/05/19 04:27:36;;;;;;;1261.63;999.90;;;19.00;99.90;;;;;;5039001;28;20210;-73
2022/05/19 04:30:04;;;;;;;1271.03;999.90;;;19.10;99.90;;;;;;5047649;28;20260;-72
2022/05/19 04:32:29;;;;;;;1255.35;999.90;;;19.00;99.90;;;;;;5037200;28;20224;-73
2022/05/19 04:34:55;;;;;;;1264.45;999.90;;;18.90;99.90;;;;;;5036851;28;20589;-73
2022/05/19 04:37:21;;;;;;;1266.57;999.90;;;18.80;99.90;;;;;;5035124;28;20639;-73
2022/05/19 04:39:46;;;;;;;1244.30;999.90;;;18.80;99.90;;;;;;5046053;28;20190;-73
2022/05/19 04:42:12;;;;;;;1302.80;999.90;;;19.10;99.90;;;;;;5035833;28;20694;-73
2022/05/19 04:44:39;;;;;;;1266.30;999.90;;;19.10;99.90;;;;;;5034369;28;20206;-73
2022/05/19 04:47:05;;;;;;;1266.07;999.90;;;18.90;99.90;;;;;;5068015;28;20190;-72
2022/05/19 04:49:34;;;;;;;1276.25;999.90;;;18.80;99.90;;;;;;5051316;28;20182;-72
2022/05/19 04:52:00;;;;;;;1285.40;999.90;;;18.70;99.90;;;;;;5054291;28;20269;-72
2022/05/19 04:54:25;;;;;;;1291.40;999.90;;;18.70;99.90;;;;;;5054879;28;20252;-71
2022/05/19 04:56:51;;;;;;;1301.28;999.90;;;18.80;99.90;;;;;;5048432;28;20291;-71
2022/05/19 04:59:17;;;;;;;1306.93;999.90;;;18.80;99.90;;;;;;5034649;28;20210;-71
2022/05/19 05:01:45;;;;;;;1313.25;999.90;;;18.80;99.90;;;;;;5034047;28;20636;-71
2022/05/19 05:04:12;;;;;;;1303.32;999.90;;;18.70;99.90;;;;;;5035400;28;20211;-70
2022/05/19 05:06:38;;;;;;;1318.10;999.90;;;18.60;99.90;;;;;;5033803;28;20187;-71
2022/05/19 05:09:04;;;;;;;1311.57;999.90;;;18.60;99.90;;;;;;5034269;28;20266;-71
2022/05/19 05:11:30;;;;;;;1318.68;999.90;;;18.50;99.90;;;;;;5067168;28;20197;-71
2022/05/19 05:14:00;;;;;;;1313.85;999.90;;;18.60;99.90;;;;;;5034466;28;20261;-71
2022/05/19 05:16:26;;;;;;;1310.18;999.90;;;18.60;99.90;;;;;;5035470;28;20206;-70
2022/05/19 05:18:51;;;;;;;1309.72;999.90;;;18.60;99.90;;;;;;5035310;28;20300;-71
2022/05/19 05:21:17;;;;;;;1284.45;999.90;;;18.60;99.90;;;;;;5035406;28;20178;-70
2022/05/19 05:23:43;;;;;;;1287.20;999.90;;;18.60;99.90;;;;;;5033788;28;20186;-72
2022/05/19 05:26:09;;;;;;;1269.60;999.90;;;18.80;99.90;;;;;;5038101;28;20647;-70
2022/05/19 05:28:36;;;;;;;1246.97;999.90;;;18.90;99.90;;;;;;5047316;28;20187;-70
2022/05/19 05:31:03;;;;;;;1233.30;999.90;;;18.80;99.90;;;;;;5017719;28;20256;-70
2022/05/19 05:33:29;;;;;;;1214.45;999.90;;;18.80;99.90;;;;;;5035023;28;20516;-70
2022/05/19 05:35:55;;;;;;;1200.05;999.90;;;18.90;99.90;;;;;;5034123;28;20276;-70
2022/05/19 05:38:21;;;;;;;1179.93;999.90;;;19.00;99.90;;;;;;5017630;28;20218;-70
2022/05/19 05:40:49;;;;;;;1171.85;999.90;;;19.10;99.90;;;;;;5034029;28;20236;-69
2022/05/19 05:43:17;;;;;;;1159.82;999.90;;;19.20;99.90;;;;;;5033935;28;20719;-70
2022/05/19 05:45:43;;;;;;;1150.25;999.90;;;19.20;99.90;;;;;;5033475;28;20586;-71
2022/05/19 05:48:10;;;;;;;1157.40;999.90;;;19.10;99.90;;;;;;5034697;28;20252;-70
2022/05/19 05:50:36;;;;;;;1134.60;999.90;;;18.90;99.90;;;;;;5046968;28;20183;-70
2022/05/19 05:53:02;;;;;;;1138.13;999.90;;;18.80;99.90;;;;;;5033412;28;20183;-70
2022/05/19 05:55:28;;;;;;;1145.65;999.90;;;18.90;99.90;;;;;;5033257;28;20570;-70
2022/05/19 05:57:54;;;;;;;1142.63;999.90;;;19.00;99.90;;;;;;5033152;28;20206;-70
2022/05/19 06:00:20;;;;;;;1129.50;999.90;;;19.30;99.90;;;;;;5050487;28;20241;-70
2022/05/19 06:02:46;;;;;;;1121.20;999.90;;;19.50;99.90;;;;;;5034572;28;20597;-70
2022/05/19 06:05:16;;;;;;;1140.15;999.90;;;19.60;99.90;;;;;;5048858;28;20260;-70
2022/05/19 06:07:41;;;;;;;1142.15;999.90;;;19.70;99.90;;;;;;5019214;28;20183;-70
2022/05/19 06:10:10;;;;;;;1135.15;999.90;;;19.90;99.90;;;;;;5033529;28;20278;-71
2022/05/19 06:12:36;;;;;;;1157.22;999.90;;;20.10;99.90;;;;;;5032914;28;20547;-71
2022/05/19 06:15:02;;;;;;;1151.47;999.90;;;20.30;99.90;;;;;;5017278;28;20200;-71
2022/05/19 06:17:27;;;;;;;1125.03;999.90;;;20.40;99.90;;;;;;5032802;28;20258;-71
2022/05/19 06:19:53;;;;;;;1112.88;999.90;;;20.70;99.90;;;;;;5046025;28;20193;-71
2022/05/19 06:22:22;;;;;;;1113.68;999.90;;;20.90;99.90;;;;;;5044388;28;20182;-85
2022/05/19 06:24:49;;;;;;;1121.47;999.90;;;21.10;99.90;;;;;;5050452;28;20265;-76
2022/05/19 06:27:15;;;;;;;1119.35;999.90;;;21.10;99.90;;;;;;5053158;28;20210;-86
2022/05/19 06:29:41;;;;;;;1137.90;999.90;;;21.10;99.90;;;;;;5042729;28;20209;-80
2022/05/19 06:32:07;;;;;;;1124.38;999.90;;;21.30;99.90;;;;;;5016035;28;20632;-75
2022/05/19 06:34:33;;;;;;;1127.60;999.90;;;21.30;99.90;;;;;;5033857;28;20178;-75
2022/05/19 06:36:59;;;;;;;1105.15;999.90;;;21.70;99.90;;;;;;5066216;28;20396;-81
2022/05/19 06:39:24;;;;;;;1115.28;999.90;;;21.50;99.90;;;;;;5017178;28;20210;-85
2022/05/19 06:42:02;;;;;;;1118.07;999.90;;;21.40;99.90;;;;;;5033889;28;20186;-78
2022/05/19 06:44:37;;;;;;;1127.35;999.90;;;21.50;99.90;;;;;;5050659;28;20183;-83
2022/05/19 06:47:09;;;;;;;1137.53;999.90;;;21.90;99.90;;;;;;5032969;28;20541;-80
2022/05/19 06:49:36;;;;;;;1126.80;999.90;;;22.10;99.90;;;;;;5033697;28;20179;-86
2022/05/19 06:52:03;;;;;;;1128.15;999.90;;;21.80;99.90;;;;;;5033748;28;20193;-82
2022/05/19 06:54:29;;;;;;;1138.70;999.90;;;21.90;99.90;;;;;;5041516;28;20655;-78
2022/05/19 06:56:55;;;;;;;1137.20;999.90;;;22.20;99.90;;;;;;5042199;28;20183;-74
2022/05/19 06:59:22;;;;;;;1123.45;999.90;;;22.40;99.90;;;;;;5031695;28;20272;-75
2022/05/19 07:01:48;;;;;;;1115.63;999.90;;;22.40;99.90;;;;;;5033792;28;20217;-78
2022/05/19 07:04:15;;;;;;;1114.65;999.90;;;22.40;99.90;;;;;;5032745;28;20189;-75
2022/05/19 07:06:41;;;;;;;1094.28;999.90;;;22.10;99.90;;;;;;5034970;28;20206;-74
2022/05/19 07:09:07;;;;;;;1113.38;999.90;;;22.30;99.90;;;;;;5037594;28;20234;-73
2022/05/19 07:11:36;;;;;;;1079.72;999.17;;;22.60;99.90;;;;;;5032953;28;20221;-72
2022/05/19 07:14:04;;;;;;;1079.03;998.95;;;22.90;99.90;;;;;;5032688;28;20266;-67
2022/05/19 07:16:31;;;;;;;1058.88;985.17;;;23.40;99.90;;;;;;5049084;28;20638;-70
2022/05/19 07:21:44;;;;;;;1093.97;999.90;;;24.80;99.90;;;;;;5032281;28;20189;-71
2022/05/19 07:24:14;;;;;;;1105.07;999.90;;;25.30;99.90;;;;;;5048608;28;20232;-73
2022/05/19 07:26:41;;;;;;;1112.53;999.90;;;26.10;99.90;;;;;;5032239;28;20241;-75
2022/05/19 07:29:07;;;;;;;1135.30;999.90;;;26.30;99.90;;;;;;5033017;28;20661;-70
2022/05/19 07:31:32;;;;;;;1145.72;999.90;;;27.00;99.90;;;;;;5033651;28;20177;-73
2022/05/19 07:33:58;;;;;;;1160.00;999.90;;;27.10;99.90;;;;;;5031992;28;20178;-71
2022/05/19 07:36:24;;;;;;;1177.50;999.90;;;27.40;99.90;;;;;;5033762;28;20271;-68
2022/05/19 07:38:50;;;;;;;1176.75;999.90;;;26.80;99.90;;;;;;5065381;28;20236;-69
2022/05/19 07:41:16;;;;;;;1177.65;999.90;;;27.30;99.90;;;;;;5042722;28;20182;-68
2022/05/19 07:43:42;;;;;;;1189.22;999.90;;;28.30;99.90;;;;;;5045442;28;20198;-69
2022/05/19 07:46:08;;;;;;;1213.43;999.90;;;29.40;99.90;;;;;;5032246;28;20189;-67
2022/05/19 07:48:35;;;;;;;1237.80;999.90;;;30.10;99.90;;;;;;5032639;28;20545;-72
2022/05/19 07:51:02;;;;;;;1267.28;999.90;;;29.70;99.90;;;;;;5031555;28;21193;-69
2022/05/19 07:53:29;;;;;;;1264.65;999.90;;;29.40;99.90;;;;;;5036289;28;20178;-68
2022/05/19 07:55:55;;;;;;;1274.07;999.90;;;30.00;99.90;;;;;;5039759;28;20178;-71
2022/05/19 07:58:21;;;;;;;1278.78;999.90;;;29.70;99.90;;;;;;5031240;28;20221;-69
2022/05/19 08:00:48;;;;;;;1270.57;999.90;;;29.40;99.90;;;;;;5064620;28;20564;-68
2022/05/19 08:03:14;;;;;;;1270.35;999.90;;;29.10;99.90;;;;;;5064691;28;20194;-68
2022/05/19 08:05:40;;;;;;;1266.60;999.90;;;28.10;99.90;;;;;;5038520;28;20192;-68
2022/05/19 08:08:06;;;;;;;1264.57;999.90;;;28.40;99.90;;;;;;5033473;28;20190;-70
2022/05/19 08:10:31;;;;;;;1266.82;999.90;;;28.30;99.90;;;;;;5034079;28;20248;-71
2022/05/19 08:15:45;;;;;;;1253.63;999.90;;;27.30;99.90;;;;;;5067340;28;20193;-69
2022/05/19 08:18:20;;;;;;;1236.15;999.90;;;26.80;99.90;;;;;;5047028;28;20212;-68
2022/05/19 08:20:57;;;;;;;1233.88;999.90;;;26.90;99.90;;;;;;5039971;28;20177;-69
2022/05/19 08:23:34;;;;;;;1225.03;999.90;;;27.20;99.90;;;;;;5045507;28;20173;-69
2022/05/19 08:26:00;;;;;;;1234.65;999.90;;;27.40;99.90;;;;;;5043547;28;20187;-69
2022/05/19 08:28:29;;;;;;;1237.15;999.90;;;27.70;99.90;;;;;;5050875;28;20174;-68
2022/05/19 08:31:04;;;;;;;1238.00;999.90;;;27.70;99.90;;;;;;5041592;28;20193;-68
2022/05/19 08:33:30;;;;;;;1234.72;999.90;;;28.00;99.90;;;;;;5052590;28;20233;-69
2022/05/19 08:35:56;;;;;;;1237.72;999.90;;;28.10;99.90;;;;;;5035846;28;20673;-68
2022/05/19 08:38:22;;;;;;;1243.95;999.90;;;28.50;99.90;;;;;;5050807;28;20237;-68
2022/05/19 08:41:17;;;;;;;1257.63;999.90;;;28.70;99.90;;;;;;5044191;28;20181;-68
2022/05/19 08:43:57;;;;;;;1257.05;999.90;;;27.80;99.90;;;;;;5059534;28;20216;-69
2022/05/19 08:46:32;;;;;;;1238.57;999.90;;;27.50;99.90;;;;;;5052142;28;20252;-69
2022/05/19 08:49:20;;;;;;;1237.28;999.90;;;27.60;99.90;;;;;;5038132;28;20184;-69
2022/05/19 08:52:08;;;;;;;1231.10;999.90;;;27.40;99.90;;;;;;5035988;28;20185;-69
2022/05/19 08:54:36;;;;;;;1219.18;999.90;;;27.50;99.90;;;;;;5035677;28;20170;-70
2022/05/19 08:57:21;;;;;;;1231.90;999.90;;;27.70;99.90;;;;;;5052462;28;20264;-70
2022/05/19 08:59:53;;;;;;;1228.72;999.90;;;28.00;99.90;;;;;;5049676;28;20697;-70
2022/05/19 09:02:38;;;;;;;1229.38;999.90;;;28.00;99.90;;;;;;5035530;28;20202;-69
2022/05/19 09:05:31;;;;;;;1230.68;999.90;;;28.10;99.90;;;;;;5035768;28;20182;-69
2022/05/19 09:08:27;;;;;;;1229.45;999.90;;;28.60;99.90;;;;;;5040128;28;20189;-69
2022/05/19 09:10:57;;;;;;;1240.25;999.90;;;29.30;99.90;;;;;;5039180;28;20189;-69
2022/05/19 09:13:26;;;;;;;1254.25;999.90;;;29.90;99.90;;;;;;5067490;28;20232;-70
2022/05/19 09:15:52;;;;;;;1260.85;999.90;;;30.10;99.90;;;;;;5035264;28;20190;-69
2022/05/19 09:18:25;;;;;;;1267.90;999.90;;;30.20;99.90;;;;;;5066702;28;20294;-70
2022/05/19 09:20:54;;;;;;;1268.85;999.90;;;30.60;99.90;;;;;;5035269;28;20756;-69
2022/05/19 09:23:20;;;;;;;1281.55;999.90;;;30.70;99.90;;;;;;5034741;28;20646;-69
2022/05/19 09:26:25;;;;;;;1280.93;999.90;;;30.30;99.90;;;;;;5051188;28;20264;-68
2022/05/19 09:29:01;;;;;;;1276.88;999.90;;;30.20;99.90;;;;;;5052247;28;20241;-70
2022/05/19 09:31:36;;;;;;;1280.80;999.90;;;29.70;99.90;;;;;;5034700;28;20645;-69
2022/05/19 09:34:02;;;;;;;1277.40;999.90;;;29.40;99.90;;;;;;5034814;28;20185;-68
2022/05/19 09:36:28;;;;;;;1274.45;999.90;;;29.00;99.90;;;;;;5035294;28;20178;-68
2022/05/19 09:39:00;;;;;;;1271.72;999.90;;;28.80;99.90;;;;;;5035069;28;20214;-69
2022/05/19 09:41:40;;;;;;;1270.20;999.90;;;29.00;99.90;;;;;;5034971;28;20174;-69
2022/05/19 09:44:13;;;;;;;1271.72;999.90;;;29.70;99.90;;;;;;5066828;28;20182;-69
2022/05/19 09:46:42;;;;;;;1282.40;999.90;;;30.20;99.90;;;;;;5034977;28;20177;-70
2022/05/19 09:49:29;;;;;;;1286.68;999.90;;;30.30;99.90;;;;;;5066257;28;20220;-68
2022/05/19 09:52:07;;;;;;;1285.00;999.90;;;30.10;99.90;;;;;;5034550;28;20193;-69
2022/05/19 09:54:34;;;;;;;1283.45;999.90;;;30.20;99.90;;;;;;5034431;28;20193;-68
2022/05/19 09:57:10;;;;;;;1280.20;999.90;;;29.80;99.90;;;;;;5037782;28;20178;-68
2022/05/19 09:59:45;;;;;;;1279.00;999.90;;;29.80;99.90;;;;;;5033171;28;20232;-68
2022/05/19 10:02:25;;;;;;;1271.05;999.90;;;29.70;99.90;;;;;;5035306;28;20201;-69
2022/05/19 10:04:57;;;;;;;1273.25;999.90;;;29.80;99.90;;;;;;5034542;28;20615;-69
2022/05/19 10:07:37;;;;;;;1273.82;999.90;;;30.00;99.90;;;;;;5034280;28;20585;-69
2022/05/19 10:10:16;;;;;;;1267.95;999.90;;;30.10;99.90;;;;;;5042858;28;20260;-69
2022/05/19 10:12:46;;;;;;;1277.85;999.90;;;30.20;99.90;;;;;;5034557;28;20178;-69
2022/05/19 10:15:16;;;;;;;1273.32;999.90;;;30.20;99.90;;;;;;5046509;28;20173;-69
2022/05/19 10:17:41;;;;;;;1274.05;999.90;;;30.00;99.90;;;;;;5052988;28;20549;-69
2022/05/19 10:20:30;;;;;;;1278.40;999.90;;;29.80;99.90;;;;;;5034025;28;20173;-69
2022/05/19 10:23:35;;;;;;;1273.03;999.90;;;29.30;99.90;;;;;;5034328;28;20265;-68
2022/05/19 10:26:28;;;;;;;1276.30;999.90;;;29.00;99.90;;;;;;5033539;28;20623;-72
2022/05/19 10:32:10;;;;;;;1263.82;999.90;;;28.10;99.90;;;;;;5044083;28;20611;-69
2022/05/19 10:35:10;;;;;;;1264.20;999.90;;;27.90;99.90;;;;;;5052102;28;20215;-70
2022/05/19 10:38:02;;;;;;;1249.65;999.90;;;27.70;99.90;;;;;;5055080;28;20193;-69
2022/05/19 10:40:54;;;;;;;1245.55;999.90;;;26.90;99.90;;;;;;5047388;28;20171;-68
2022/05/19 10:43:48;;;;;;;1221.22;999.90;;;25.00;99.90;;;;;;5032472;28;20540;-68
2022/05/19 10:46:18;;;;;;;1169.93;999.90;;;23.50;99.90;;;;;;5041925;28;20722;-69
2022/05/19 10:49:12;;;;;;;1123.07;999.90;;;22.70;99.90;;;;;;5052286;28;20178;-70
2022/05/19 10:52:15;;;;;;;1172.68;999.90;;;21.80;99.90;;;;;;5039014;28;20681;-70
2022/05/19 10:54:43;;;;;;;1003.45;937.72;;;21.10;99.90;;;;;;5029584;28;20193;-72
2022/05/19 10:57:38;;;;;;;1049.28;976.88;;;20.40;99.90;;;;;;5037546;28;20175;-73
2022/05/19 11:00:44;;;;;;;1055.05;980.45;;;20.30;99.90;;;;;;5023745;28;20212;-72
2022/05/19 11:03:28;;;;;;;1081.97;997.85;;;20.30;99.90;;;;;;5033343;28;20202;-72
2022/05/19 11:06:31;;;;;;;1126.03;999.90;;;20.20;99.90;;;;;;5033430;28;20191;-73
2022/05/19 11:09:13;;;;;;;1136.22;999.90;;;20.20;99.90;;;;;;5040107;28;20185;-69
2022/05/19 11:11:42;;;;;;;1139.47;999.90;;;20.10;99.90;;;;;;5047117;28;20193;-72
2022/05/19 11:14:35;;;;;;;1135.75;999.90;;;20.00;99.90;;;;;;5035799;28;20194;-72
2022/05/19 11:17:04;;;;;;;1119.22;999.90;;;19.90;99.90;;;;;;5038713;28;20209;-76
2022/05/19 11:19:47;;;;;;;1130.45;999.90;;;19.90;99.90;;;;;;5043737;28;20202;-77
2022/05/19 11:22:17;;;;;;;1120.53;999.90;;;19.80;99.90;;;;;;5033287;28;20638;-74
2022/05/19 11:28:03;;;;;;;1109.05;999.90;;;20.00;99.90;;;;;;5032966;28;20236;-75
2022/05/19 11:30:45;;;;;;;1109.18;999.90;;;20.40;99.90;;;;;;5035562;28;20182;-73
2022/05/19 11:33:17;;;;;;;1141.43;999.90;;;20.90;99.90;;;;;;5034051;28;20173;-74
2022/05/19 11:35:47;;;;;;;1177.30;999.90;;;21.50;99.90;;;;;;5034788;28;20209;-74
2022/05/19 11:38:19;;;;;;;1203.78;999.90;;;22.30;99.90;;;;;;5040337;28;20607;-75
2022/05/19 11:40:54;;;;;;;1206.78;999.90;;;23.00;99.90;;;;;;5042060;28;20174;-75
2022/05/19 11:43:36;;;;;;;1190.85;999.90;;;23.60;99.90;;;;;;5035206;28;20231;-75
2022/05/19 11:46:06;;;;;;;1154.88;999.90;;;23.60;99.90;;;;;;5051905;28;20260;-76
2022/05/19 11:57:24;;;;;;;1148.68;999.90;;;22.70;99.90;;;;;;5033364;28;20177;-79
2022/05/19 11:59:55;;;;;;;1148.25;999.90;;;22.70;99.90;;;;;;5045946;28;20214;-79
2022/05/19 12:02:30;;;;;;;1145.30;999.90;;;22.50;99.90;;;;;;5036924;28;20193;-78
2022/05/19 12:05:10;;;;;;;1164.85;999.90;;;22.20;99.90;;;;;;5032833;28;20197;-79
2022/05/19 12:07:50;;;;;;;1174.07;999.90;;;21.90;99.90;;;;;;5031538;28;20212;-78
2022/05/19 12:10:22;;;;;;;1203.47;999.90;;;21.70;99.90;;;;;;5036668;28;20180;-77
2022/05/19 12:12:59;;;;;;;1198.03;999.90;;;21.80;99.90;;;;;;5032636;28;20178;-80
2022/05/19 12:15:55;;;;;;;1187.63;999.90;;;21.80;99.90;;;;;;5044720;28;20239;-77
2022/05/19 12:18:23;;;;;;;1153.13;999.90;;;21.70;99.90;;;;;;5047222;28;20691;-78
2022/05/19 12:21:12;;;;;;;1127.60;999.90;;;21.40;99.90;;;;;;5031460;28;20270;-77
2022/05/19 12:23:42;;;;;;;1144.55;999.90;;;21.40;99.90;;;;;;5030710;28;20178;-78
2022/05/19 12:26:17;;;;;;;1137.57;999.90;;;21.50;99.90;;;;;;5048025;28;20260;-76
2022/05/19 12:29:01;;;;;;;1111.82;999.90;;;22.00;99.90;;;;;;5040038;28;20256;-77
2022/05/19 12:34:32;;;;;;;1112.93;999.90;;;22.60;99.90;;;;;;5032625;28;20208;-79
2022/05/19 12:37:09;;;;;;;1128.93;999.90;;;22.90;99.90;;;;;;5032212;28;20194;-76
2022/05/19 12:39:49;;;;;;;1132.30;999.90;;;22.80;99.90;;;;;;5032334;28;20210;-72
2022/05/19 12:42:35;;;;;;;1136.63;999.90;;;22.60;99.90;;;;;;5033208;28;20175;-78
2022/05/19 12:45:21;;;;;;;1123.93;999.90;;;22.40;99.90;;;;;;5071777;28;20619;-77